Time;durP1;ratioP1;P1;durP2;ratioP2;P2;SDS_P1;SDS_P2;PMS_P1;PMS_P2;Temp;Humidity;BMP_temperature;BMP_pressure;BME280_temperature;BME280_humidity;BME280_pressure;Samples;Min_cycle;Max_cycle;Signal;HPM_P1;HPM_P2
2021/12/04 00:00:23;;;;;;;10.38;7.53;;;;;;;3.31;96.24;99943.94;5012402;28;20021;-77
2021/12/04 00:02:50;;;;;;;13.35;7.80;;;;;;;3.30;96.15;99934.13;5024400;28;20541;-73
2021/12/04 00:05:16;;;;;;;9.07;6.72;;;;;;;3.30;96.38;99930.56;5028610;28;20017;-74
2021/12/04 00:07:41;;;;;;;12.48;7.28;;;;;;;3.30;96.34;99925.19;5007376;28;20036;-74
2021/12/04 00:10:08;;;;;;;10.18;7.43;;;;;;;3.31;96.32;99918.88;5020560;28;20018;-74
2021/12/04 00:12:34;;;;;;;11.23;7.50;;;;;;;3.29;95.90;99905.53;5018090;28;20029;-71
2021/12/04 00:15:00;;;;;;;12.18;7.93;;;;;;;3.29;96.41;99907.34;5023896;28;20386;-76
2021/12/04 00:17:26;;;;;;;12.30;7.15;;;;;;;3.30;96.37;99901.88;5016779;28;20731;-75
2021/12/04 00:19:51;;;;;;;13.07;8.02;;;;;;;3.30;96.32;99885.75;5014347;28;20025;-76
2021/12/04 00:22:16;;;;;;;12.80;7.28;;;;;;;3.32;96.25;99888.38;5016706;28;20056;-71
2021/12/04 00:24:42;;;;;;;9.68;7.25;;;;;;;3.32;96.32;99888.38;5021640;28;20397;-74
2021/12/04 00:27:07;;;;;;;8.80;7.00;;;;;;;3.31;96.32;99891.97;5027149;28;20029;-71
2021/12/04 00:29:32;;;;;;;14.45;7.72;;;;;;;3.31;96.20;99887.50;5019757;28;20025;-71
2021/12/04 00:34:45;;;;;;;16.33;7.43;;;;;;;3.31;96.29;99884.81;5027719;28;20117;-74
2021/12/04 00:50:35;;;;;;;9.55;6.95;;;;;;;3.33;96.29;99874.81;5016244;28;20036;-76
2021/12/04 00:53:01;;;;;;;12.07;6.72;;;;;;;3.33;96.13;99868.59;5026943;28;20029;-71
2021/12/04 00:55:26;;;;;;;9.77;6.93;;;;;;;3.36;96.12;99870.22;5027069;28;20104;-74
2021/12/04 00:57:52;;;;;;;8.45;6.53;;;;;;;3.33;95.88;99869.44;5027191;28;20172;-71
2021/12/04 01:00:18;;;;;;;8.95;7.13;;;;;;;3.32;96.13;99861.50;5012130;28;20021;-74
2021/12/04 01:02:43;;;;;;;8.85;6.78;;;;;;;3.33;95.94;99868.59;5020963;28;20034;-74
2021/12/04 01:05:09;;;;;;;8.93;6.85;;;;;;;3.35;95.88;99873.88;5025754;28;20021;-76
2021/12/04 01:07:34;;;;;;;10.82;7.90;;;;;;;3.34;96.00;99870.31;5026367;28;20037;-71
2021/12/04 01:10:00;;;;;;;9.10;7.40;;;;;;;3.34;95.96;99867.63;5025061;28;20022;-75
2021/12/04 01:12:26;;;;;;;12.65;7.13;;;;;;;3.35;96.19;99880.09;5011044;28;20037;-71
2021/12/04 01:14:51;;;;;;;12.43;7.22;;;;;;;3.30;96.20;99871.44;5028731;28;20124;-72
2021/12/04 01:17:17;;;;;;;8.98;7.43;;;;;;;3.35;96.10;99873.88;5019392;28;20394;-72
2021/12/04 01:19:42;;;;;;;8.98;7.30;;;;;;;3.37;96.07;99877.34;5038959;28;20037;-71
2021/12/04 01:22:07;;;;;;;11.02;7.35;;;;;;;3.36;95.92;99873.78;5025373;28;20460;-72
2021/12/04 01:24:33;;;;;;;9.20;7.15;;;;;;;3.39;96.19;99878.09;5019692;28;20032;-74
2021/12/04 01:26:58;;;;;;;9.75;7.18;;;;;;;3.38;96.11;99876.38;5028782;28;20492;-71
2021/12/04 01:29:24;;;;;;;11.85;7.50;;;;;;;3.31;96.00;99867.78;5026293;28;20045;-74
2021/12/04 01:31:49;;;;;;;10.27;7.38;;;;;;;3.40;96.31;99861.00;5025079;28;20473;-73
2021/12/04 01:34:15;;;;;;;10.07;6.75;;;;;;;3.38;96.17;99866.50;5031795;28;20770;-71
2021/12/04 01:36:41;;;;;;;10.85;7.68;;;;;;;3.42;96.62;99862.66;5029732;28;20465;-73
2021/12/04 01:39:07;;;;;;;10.75;6.90;;;;;;;3.40;96.05;99861.88;5030044;28;20445;-71
2021/12/04 01:41:33;;;;;;;12.25;7.43;;;;;;;3.42;95.99;99864.50;5020872;28;20386;-74
2021/12/04 01:44:00;;;;;;;8.77;7.05;;;;;;;3.42;95.81;99857.28;5020021;28;20022;-75
2021/12/04 01:46:26;;;;;;;8.90;7.40;;;;;;;3.43;96.10;99867.09;5013435;28;20041;-71
2021/12/04 01:48:51;;;;;;;9.10;6.68;;;;;;;3.46;96.13;99863.38;5014680;28;20469;-74
2021/12/04 01:51:17;;;;;;;9.90;6.93;;;;;;;3.45;95.72;99867.88;5016883;28;20045;-72
2021/12/04 01:53:42;;;;;;;12.27;6.70;;;;;;;3.44;96.16;99857.19;5026136;28;20481;-75
2021/12/04 01:56:07;;;;;;;12.40;7.15;;;;;;;3.45;96.07;99850.84;5029750;28;20022;-76
2021/12/04 01:58:33;;;;;;;8.20;6.25;;;;;;;3.45;96.59;99846.38;5029064;28;20057;-71
2021/12/04 02:00:58;;;;;;;10.02;6.85;;;;;;;3.46;95.91;99858.00;5010792;28;20034;-72
2021/12/04 02:03:23;;;;;;;11.85;6.63;;;;;;;3.46;95.99;99850.78;5012033;28;20390;-75
2021/12/04 02:05:50;;;;;;;10.27;6.57;;;;;;;3.47;96.07;99855.19;5030156;28;20036;-73
2021/12/04 02:08:18;;;;;;;12.60;7.13;;;;;;;3.45;96.14;99850.84;5029907;28;20026;-71
2021/12/04 02:10:45;;;;;;;10.38;6.82;;;;;;;3.47;96.04;99851.66;5027795;28;20449;-75
2021/12/04 02:13:11;;;;;;;8.60;6.97;;;;;;;3.44;96.20;99836.53;5028270;28;20037;-74
2021/12/04 02:15:36;;;;;;;8.57;6.43;;;;;;;3.46;96.14;99825.72;5024532;28;20026;-74
2021/12/04 02:18:05;;;;;;;10.60;7.13;;;;;;;3.48;95.94;99821.09;5012416;28;20037;-75
2021/12/04 02:20:33;;;;;;;10.63;7.10;;;;;;;3.47;95.98;99814.88;5020497;28;20073;-72
2021/12/04 02:22:59;;;;;;;9.65;7.30;;;;;;;3.49;95.91;99804.88;5027722;28;20104;-74
2021/12/04 02:25:25;;;;;;;9.25;7.03;;;;;;;3.49;96.00;99796.81;5029292;28;20029;-71
2021/12/04 02:27:50;;;;;;;13.25;7.20;;;;;;;3.48;96.34;99797.78;5029480;28;20039;-75
2021/12/04 02:30:18;;;;;;;11.57;7.20;;;;;;;3.50;95.90;99798.56;5030324;28;20076;-75
2021/12/04 02:32:44;;;;;;;10.45;7.35;;;;;;;3.49;95.94;99788.75;5040088;28;20029;-71
2021/12/04 02:35:11;;;;;;;15.45;7.93;;;;;;;3.50;96.15;99789.63;5030430;28;20024;-72
2021/12/04 02:37:38;;;;;;;9.82;7.50;;;;;;;3.51;96.30;99789.53;5025465;28;20096;-75
2021/12/04 02:40:07;;;;;;;10.88;7.05;;;;;;;3.51;95.87;99781.47;5014116;28;20025;-71
2021/12/04 02:42:32;;;;;;;13.32;8.82;;;;;;;3.51;96.06;99778.78;5024758;28;20033;-72
2021/12/04 02:45:01;;;;;;;13.35;7.45;;;;;;;3.52;95.99;99771.56;5029766;28;20023;-71
2021/12/04 02:47:27;;;;;;;14.18;7.07;;;;;;;3.51;95.93;99778.78;5021968;28;20515;-72
2021/12/04 02:49:54;;;;;;;11.98;7.32;;;;;;;3.51;95.83;99767.16;5027755;28;20024;-72
2021/12/04 02:52:20;;;;;;;13.23;7.38;;;;;;;3.52;95.93;99763.50;5012078;28;20417;-76
2021/12/04 02:54:46;;;;;;;11.73;8.10;;;;;;;3.52;96.05;99763.50;5024526;28;20060;-72
2021/12/04 02:57:15;;;;;;;19.13;7.82;;;;;;;3.54;96.05;99772.31;5025784;28;20029;-74
2021/12/04 02:59:42;;;;;;;11.27;7.47;;;;;;;3.55;95.78;99771.41;5029685;28;20026;-74
2021/12/04 03:02:15;;;;;;;11.65;7.72;;;;;;;3.55;95.82;99774.94;5027559;28;20036;-72
2021/12/04 03:04:40;;;;;;;12.25;7.10;;;;;;;3.54;95.88;99772.31;5029264;28;20045;-71
2021/12/04 03:07:06;;;;;;;14.15;7.13;;;;;;;3.54;96.00;99772.31;5028336;28;20095;-72
2021/12/04 03:09:31;;;;;;;13.75;8.23;;;;;;;3.54;95.79;99775.91;5026070;28;20378;-75
2021/12/04 03:11:56;;;;;;;13.48;7.68;;;;;;;3.54;95.87;99772.31;5024682;28;20366;-74
2021/12/04 03:14:22;;;;;;;12.27;8.13;;;;;;;3.54;95.54;99765.16;5027624;28;20040;-75
2021/12/04 03:16:47;;;;;;;13.63;7.55;;;;;;;3.52;95.96;99759.00;5010143;28;20088;-72
2021/12/04 03:19:13;;;;;;;10.48;6.75;;;;;;;3.54;95.85;99751.72;5028543;28;20370;-71
2021/12/04 03:21:39;;;;;;;13.57;7.90;;;;;;;3.52;95.66;99744.69;5023160;28;20086;-71
2021/12/04 03:24:07;;;;;;;11.55;7.03;;;;;;;3.52;95.82;99744.69;5026868;28;20037;-75
2021/12/04 03:26:33;;;;;;;13.20;7.05;;;;;;;3.52;95.63;99745.53;5027537;28;20424;-73
2021/12/04 03:29:05;;;;;;;11.93;7.22;;;;;;;3.50;95.78;99738.56;5025375;28;20626;-75
2021/12/04 03:42:07;;;;;;;11.57;7.45;;;;;;;3.52;95.45;99737.47;5010810;28;20036;-75
2021/12/04 03:44:33;;;;;;;8.65;6.38;;;;;;;3.52;95.59;99736.63;5028551;28;20029;-71
2021/12/04 03:46:59;;;;;;;10.45;7.13;;;;;;;3.51;95.47;99732.22;5024998;28;20037;-71
2021/12/04 03:49:25;;;;;;;9.75;7.22;;;;;;;3.51;95.82;99727.69;5028234;28;20025;-76
2021/12/04 03:51:50;;;;;;;11.88;7.30;;;;;;;3.50;95.57;99728.66;5015761;28;20032;-72
2021/12/04 03:54:15;;;;;;;12.10;7.25;;;;;;;3.49;95.60;99716.16;5027296;28;20023;-72
2021/12/04 03:56:40;;;;;;;10.32;7.10;;;;;;;3.50;95.65;99717.91;5026931;28;20465;-76
2021/12/04 03:59:06;;;;;;;11.20;6.88;;;;;;;3.50;95.81;99717.91;5026321;28;20450;-76
2021/12/04 04:01:31;;;;;;;10.10;6.60;;;;;;;3.51;95.80;99716.06;5008366;28;20036;-72
2021/12/04 04:03:56;;;;;;;10.05;7.05;;;;;;;3.49;95.84;99718.84;5026659;28;20064;-71
2021/12/04 04:06:22;;;;;;;10.88;6.88;;;;;;;3.51;95.63;99725.00;5024964;28;20106;-75
2021/12/04 04:08:47;;;;;;;10.80;6.70;;;;;;;3.50;95.79;99717.91;5041891;28;20028;-72
2021/12/04 04:11:12;;;;;;;8.73;6.00;;;;;;;3.49;95.93;99712.59;5020653;28;22155;-71
2021/12/04 04:13:42;;;;;;;9.68;6.25;;;;;;;3.50;95.64;99714.34;5024096;28;20395;-73
2021/12/04 04:16:07;;;;;;;9.05;6.53;;;;;;;3.51;95.87;99708.00;5020914;28;20056;-72
2021/12/04 04:18:32;;;;;;;9.18;6.22;;;;;;;3.49;95.50;99707.22;5018949;28;20407;-75
2021/12/04 04:20:58;;;;;;;9.27;6.05;;;;;;;3.50;95.49;99704.47;5012689;28;20423;-76
2021/12/04 04:23:24;;;;;;;8.55;6.32;;;;;;;3.50;95.47;99690.16;5025671;28;20029;-72
2021/12/04 04:25:49;;;;;;;8.35;5.55;;;;;;;3.51;95.58;99700.81;5021453;28;20036;-72
2021/12/04 04:28:14;;;;;;;8.00;5.28;;;;;;;3.51;95.62;99683.81;5015683;28;20025;-72
2021/12/04 04:30:40;;;;;;;8.48;5.40;;;;;;;3.54;95.61;99692.56;5022700;28;20453;-76
2021/12/04 04:33:06;;;;;;;7.43;5.15;;;;;;;3.53;95.48;99689.94;5027421;28;20026;-73
2021/12/04 04:35:33;;;;;;;7.15;4.78;;;;;;;3.53;95.59;99692.63;5028465;28;20025;-74
2021/12/04 04:38:15;;;;;;;6.47;5.15;;;;;;;3.53;95.67;99687.25;5025592;28;20083;-71
2021/12/04 05:00:57;;;;;;;6.60;4.43;;;;;;;3.54;95.34;99689.88;5017972;28;20474;-72
2021/12/04 05:13:18;;;;;;;5.13;3.72;;;;;;;3.54;95.44;99673.75;5023669;28;20041;-74
2021/12/04 05:20:49;;;;;;;5.93;4.10;;;;;;;3.52;95.62;99653.25;5018997;28;20474;-76
2021/12/04 05:23:14;;;;;;;6.20;4.25;;;;;;;3.52;95.45;99659.50;5018122;28;20032;-74
2021/12/04 05:25:39;;;;;;;6.90;3.92;;;;;;;3.51;95.64;99657.78;5018859;28;20033;-72
2021/12/04 05:28:07;;;;;;;7.28;3.72;;;;;;;3.51;95.45;99660.47;5026900;28;20017;-74
2021/12/04 05:30:33;;;;;;;4.70;3.75;;;;;;;3.50;95.68;99656.06;5017684;28;20018;-72
2021/12/04 05:32:59;;;;;;;5.43;3.53;;;;;;;3.47;95.68;99650.88;5027696;28;20465;-74
2021/12/04 05:35:25;;;;;;;4.47;3.72;;;;;;;3.51;95.63;99654.22;5026883;28;20029;-71
2021/12/04 05:37:50;;;;;;;4.75;3.70;;;;;;;3.52;95.56;99656.81;5011088;28;20136;-71
2021/12/04 05:40:16;;;;;;;4.53;3.80;;;;;;;3.54;95.62;99662.09;5027655;28;20056;-75
2021/12/04 05:42:42;;;;;;;4.60;3.28;;;;;;;3.53;95.51;99665.75;5021832;28;20029;-72
2021/12/04 05:45:15;;;;;;;6.82;4.13;;;;;;;3.54;95.64;99662.97;5027576;28;20488;-75
2021/12/04 05:55:27;;;;;;;5.18;3.55;;;;;;;3.55;95.62;99648.56;5026673;28;20034;-75
2021/12/04 05:57:53;;;;;;;4.22;3.38;;;;;;;3.54;95.64;99652.22;5029191;28;20025;-73
2021/12/04 06:00:22;;;;;;;3.58;3.28;;;;;;;3.56;95.48;99646.75;5025836;28;20523;-73
2021/12/04 06:02:48;;;;;;;5.50;4.32;;;;;;;3.57;95.63;99654.69;5029587;28;20069;-72
2021/12/04 06:05:15;;;;;;;4.38;3.72;;;;;;;3.56;95.62;99652.13;5024917;28;20654;-72
2021/12/04 06:07:41;;;;;;;4.03;3.40;;;;;;;3.58;95.68;99648.34;5028055;28;20503;-72
2021/12/04 06:10:07;;;;;;;4.95;3.47;;;;;;;3.60;95.36;99648.28;5025052;28;20025;-72
2021/12/04 06:12:33;;;;;;;5.10;3.25;;;;;;;3.61;95.47;99643.75;5016712;28;20029;-72
2021/12/04 06:14:59;;;;;;;11.23;3.67;;;;;;;3.61;95.54;99641.94;5020344;28;20383;-71
2021/12/04 06:17:25;;;;;;;6.70;4.00;;;;;;;3.60;95.65;99634.84;5022806;28;20037;-74
2021/12/04 06:22:40;;;;;;;5.63;3.75;;;;;;;3.59;95.73;99643.88;5028104;28;20044;-71
2021/12/04 06:25:09;;;;;;;3.90;3.13;;;;;;;3.58;95.72;99634.91;5018121;28;20032;-76
2021/12/04 06:27:35;;;;;;;4.82;3.28;;;;;;;3.60;95.74;99634.84;5020981;28;20108;-76
2021/12/04 06:30:03;;;;;;;4.18;3.22;;;;;;;3.54;95.72;99616.38;5029837;28;20095;-71
2021/12/04 06:32:28;;;;;;;4.38;3.42;;;;;;;3.59;95.84;99635.81;5020839;28;20029;-74
2021/12/04 06:34:53;;;;;;;3.88;3.03;;;;;;;3.58;95.83;99636.75;5030498;28;20025;-72
2021/12/04 06:37:19;;;;;;;6.65;3.53;;;;;;;3.60;95.51;99644.72;5029608;28;20032;-72
2021/12/04 06:39:44;;;;;;;5.88;3.72;;;;;;;3.61;95.61;99643.75;5024126;28;20030;-74
2021/12/04 06:42:10;;;;;;;4.30;3.60;;;;;;;3.62;95.73;99651.72;5021077;28;20359;-76
2021/12/04 06:44:35;;;;;;;4.97;3.70;;;;;;;3.63;95.61;99647.22;5029911;28;20060;-74
2021/12/04 06:47:01;;;;;;;4.68;3.78;;;;;;;3.63;95.58;99644.50;5027257;28;20022;-76
2021/12/04 06:49:41;;;;;;;5.88;3.88;;;;;;;3.60;95.74;99640.22;5030153;28;20021;-72
2021/12/04 06:52:12;;;;;;;5.70;3.67;;;;;;;3.63;95.73;99644.50;5014920;28;20036;-72
2021/12/04 06:54:41;;;;;;;9.18;3.90;;;;;;;3.62;95.92;99640.09;5030170;28;20120;-76
2021/12/04 06:57:10;;;;;;;5.32;3.70;;;;;;;3.64;95.55;99644.44;5029379;28;20020;-74
2021/12/04 06:59:37;;;;;;;6.63;3.60;;;;;;;3.63;95.70;99641.81;5021711;28;20026;-74
2021/12/04 07:02:03;;;;;;;6.32;3.88;;;;;;;3.64;95.61;99643.53;5008385;28;20105;-74
2021/12/04 07:04:34;;;;;;;4.72;3.72;;;;;;;3.66;95.55;99650.56;5009903;28;20146;-71
2021/12/04 07:06:59;;;;;;;5.18;3.65;;;;;;;3.67;95.72;99646.91;5019425;28;20026;-72
2021/12/04 07:09:25;;;;;;;4.90;3.85;;;;;;;3.68;95.54;99650.47;5011348;28;20022;-72
2021/12/04 07:11:50;;;;;;;5.53;3.65;;;;;;;3.69;95.83;99645.00;5008696;28;20393;-75
2021/12/04 07:14:15;;;;;;;8.18;4.20;;;;;;;3.68;95.64;99645.94;5010341;28;20084;-75
2021/12/04 07:16:41;;;;;;;6.72;3.95;;;;;;;3.68;95.58;99645.94;5011101;28;20495;-71
2021/12/04 07:19:06;;;;;;;7.85;3.67;;;;;;;3.68;95.52;99640.56;5009702;28;20457;-71
2021/12/04 07:21:31;;;;;;;6.32;3.97;;;;;;;3.70;95.60;99643.19;5007662;28;20493;-71
2021/12/04 07:23:57;;;;;;;6.15;3.65;;;;;;;3.68;95.69;99645.94;5015501;28;20029;-76
2021/12/04 07:26:22;;;;;;;7.20;4.10;;;;;;;3.68;95.79;99635.19;5017079;28;20246;-72
2021/12/04 07:28:47;;;;;;;7.00;4.15;;;;;;;3.68;96.04;99634.31;5019901;28;20029;-75
2021/12/04 07:31:13;;;;;;;6.95;3.92;;;;;;;3.67;95.92;99638.84;5021798;28;20509;-74
2021/12/04 07:33:38;;;;;;;6.63;4.35;;;;;;;3.69;95.99;99636.09;5021440;28;20024;-73
2021/12/04 07:36:04;;;;;;;8.45;4.45;;;;;;;3.69;95.79;99636.09;5029041;28;20029;-73
2021/12/04 07:38:29;;;;;;;6.78;3.97;;;;;;;3.70;95.93;99637.81;5023875;28;20061;-71
2021/12/04 07:40:55;;;;;;;9.25;4.68;;;;;;;3.69;95.93;99634.25;5017733;28;20025;-73
2021/12/04 07:43:20;;;;;;;6.22;4.15;;;;;;;3.71;95.73;99642.22;5028680;28;20032;-75
2021/12/04 07:45:46;;;;;;;7.35;4.60;;;;;;;3.74;95.74;99626.75;5028311;28;20555;-76
2021/12/04 07:48:11;;;;;;;7.60;4.85;;;;;;;3.76;95.72;99626.63;5028264;28;20405;-71
2021/12/04 07:50:37;;;;;;;8.10;4.55;;;;;;;3.75;96.02;99625.78;5021077;28;20397;-71
2021/12/04 07:53:03;;;;;;;8.55;5.13;;;;;;;3.76;95.74;99619.44;5019986;28;20562;-73
2021/12/04 07:55:29;;;;;;;7.50;5.18;;;;;;;3.78;95.65;99624.75;5027390;28;20026;-75
2021/12/04 07:57:55;;;;;;;7.53;4.65;;;;;;;3.76;95.86;99618.56;5023948;28;20105;-75
2021/12/04 08:00:22;;;;;;;5.82;4.43;;;;;;;3.77;95.72;99621.16;5007151;28;20026;-72
2021/12/04 08:02:48;;;;;;;9.82;4.72;;;;;;;3.79;95.72;99610.31;5009693;28;20558;-71
2021/12/04 08:05:14;;;;;;;7.70;4.10;;;;;;;3.81;95.70;99614.63;5009172;28;20093;-71
2021/12/04 08:07:41;;;;;;;7.32;4.57;;;;;;;3.84;95.68;99614.44;5014382;28;20068;-73
2021/12/04 08:10:13;;;;;;;9.10;4.40;;;;;;;3.84;95.82;99614.44;5012439;28;20073;-72
2021/12/04 08:12:39;;;;;;;8.15;4.03;;;;;;;3.85;95.73;99615.28;5005052;28;20093;-71
2021/12/04 08:15:06;;;;;;;8.82;3.78;;;;;;;3.87;95.83;99620.56;5010565;28;20053;-72
2021/12/04 08:17:31;;;;;;;10.15;3.92;;;;;;;3.86;95.66;99617.00;5014124;28;20055;-77
2021/12/04 08:19:57;;;;;;;7.13;4.22;;;;;;;3.88;95.83;99608.88;5024269;28;20156;-71
2021/12/04 08:22:22;;;;;;;5.78;3.78;;;;;;;3.90;95.92;99605.09;5013409;28;20061;-76
2021/12/04 08:24:48;;;;;;;5.63;4.05;;;;;;;3.92;95.92;99602.31;5027659;28;20033;-74
2021/12/04 08:27:15;;;;;;;6.22;4.70;;;;;;;3.93;95.83;99591.44;5025434;28;20067;-74
2021/12/04 08:29:41;;;;;;;8.25;4.45;;;;;;;3.93;95.58;99586.06;5026263;28;20029;-72
2021/12/04 08:32:07;;;;;;;7.95;4.32;;;;;;;3.94;95.61;99581.56;5025679;28;20389;-74
2021/12/04 08:34:33;;;;;;;9.52;5.20;;;;;;;3.94;95.45;99568.97;5022537;28;20029;-72
2021/12/04 08:36:58;;;;;;;6.68;4.40;;;;;;;3.94;95.92;99573.47;5014779;28;20037;-72
2021/12/04 08:39:23;;;;;;;9.65;4.78;;;;;;;3.96;95.85;99571.53;5023221;28;20072;-74
2021/12/04 08:41:49;;;;;;;10.15;5.40;;;;;;;3.99;95.88;99572.22;5015868;28;20060;-72
2021/12/04 08:44:16;;;;;;;8.10;5.15;;;;;;;4.01;95.35;99569.41;5027163;28;20040;-73
2021/12/04 08:46:41;;;;;;;13.20;5.45;;;;;;;3.98;95.56;99558.88;5019130;28;20079;-71
2021/12/04 08:49:07;;;;;;;9.63;4.82;;;;;;;4.04;95.24;99561.13;5027874;28;20030;-71
2021/12/04 08:51:34;;;;;;;10.50;4.82;;;;;;;4.05;95.21;99558.34;5013418;28;20053;-77
2021/12/04 08:54:01;;;;;;;7.75;4.45;;;;;;;4.06;95.24;99552.00;5025152;28;20349;-72
2021/12/04 08:56:27;;;;;;;10.07;4.88;;;;;;;4.11;95.15;99550.84;5027217;28;20018;-76
2021/12/04 08:58:52;;;;;;;7.88;4.95;;;;;;;4.12;95.08;99550.75;5025471;28;20033;-73
2021/12/04 09:01:24;;;;;;;8.93;4.90;;;;;;;4.14;95.37;99548.78;5024891;28;20498;-76
2021/12/04 09:03:53;;;;;;;6.53;4.03;;;;;;;4.18;94.75;99558.38;5027087;28;20021;-76
2021/12/04 09:06:19;;;;;;;8.32;4.25;;;;;;;4.21;94.88;99571.66;5017728;28;20025;-72
2021/12/04 09:08:45;;;;;;;6.75;4.35;;;;;;;4.27;95.07;99567.69;5026931;28;20028;-72
2021/12/04 09:11:16;;;;;;;8.85;4.53;;;;;;;4.30;94.54;99571.03;5027162;28;20540;-72
2021/12/04 09:13:43;;;;;;;7.93;3.95;;;;;;;4.33;95.08;99567.25;5025421;28;21540;-74
2021/12/04 09:16:09;;;;;;;6.53;3.92;;;;;;;4.33;94.45;99562.75;5025635;28;20596;-71
2021/12/04 09:18:35;;;;;;;5.90;4.18;;;;;;;4.34;94.46;99555.56;5026881;28;20030;-76
2021/12/04 09:21:01;;;;;;;6.72;4.30;;;;;;;4.38;94.49;99553.50;5023707;28;20108;-77
2021/12/04 09:23:33;;;;;;;8.75;4.85;;;;;;;4.37;94.50;99554.47;5015365;28;20029;-72
2021/12/04 09:26:02;;;;;;;7.47;4.40;;;;;;;4.40;94.30;99543.50;5013077;28;20033;-72
2021/12/04 09:28:40;;;;;;;7.97;4.80;;;;;;;4.41;94.38;99543.38;5018483;28;20036;-74
2021/12/04 09:33:58;;;;;;;7.97;5.03;;;;;;;4.45;94.47;99542.22;5016469;28;20136;-72
2021/12/04 09:36:41;;;;;;;6.50;4.35;;;;;;;4.51;94.45;99546.31;5028434;28;20068;-72
2021/12/04 10:04:26;;;;;;;9.73;5.65;;;;;;;4.64;93.76;99517.56;5024334;28;20241;-75
2021/12/04 10:33:51;;;;;;;9.98;5.20;;;;;;;4.57;94.23;99484.81;5013519;28;20036;-73
2021/12/04 10:36:35;;;;;;;10.68;5.43;;;;;;;4.59;94.37;99477.47;5021268;28;20021;-77
2021/12/04 10:39:04;;;;;;;9.13;5.22;;;;;;;4.57;94.12;99476.75;5022082;28;20393;-73
2021/12/04 10:41:32;;;;;;;8.63;5.68;;;;;;;4.61;94.39;99480.06;5015910;28;20069;-77
2021/12/04 10:44:22;;;;;;;10.45;5.88;;;;;;;4.60;93.99;99470.25;5010716;28;20386;-76
2021/12/04 10:47:14;;;;;;;9.23;6.50;;;;;;;4.62;94.12;99465.66;5015141;28;20028;-73
2021/12/04 10:50:10;;;;;;;12.85;5.60;;;;;;;4.65;93.82;99456.47;5021073;28;20024;-75
2021/12/04 10:55:16;;;;;;;11.43;6.30;;;;;;;4.69;94.25;99463.38;5018430;28;20068;-76
2021/12/04 11:03:04;;;;;;;7.97;5.70;;;;;;;4.71;94.50;99431.78;5025116;28;20099;-76
2021/12/04 11:20:14;;;;;;;10.80;6.63;;;;;;;5.03;93.90;99405.22;5030035;28;20040;-76
2021/12/04 11:23:33;;;;;;;16.88;7.53;;;;;;;5.07;94.04;99401.34;5013245;28;20046;-74
2021/12/04 11:39:43;;;;;;;12.23;7.05;;;;;;;5.32;92.98;99397.72;5028610;28;20059;-76
2021/12/04 11:42:06;;;;;;;9.43;6.25;;;;;;;5.31;92.98;99385.19;5017221;28;20436;-77
2021/12/04 11:44:32;;;;;;;11.65;6.13;;;;;;;5.35;93.07;99390.25;5029728;28;20037;-73
2021/12/04 11:46:57;;;;;;;9.93;6.13;;;;;;;5.37;93.20;99382.91;5025739;28;20124;-77
2021/12/04 11:49:31;;;;;;;9.45;6.70;;;;;;;5.42;92.94;99382.56;5020104;28;20101;-76
2021/12/04 11:52:14;;;;;;;10.82;6.82;;;;;;;5.44;92.96;99385.16;5025368;28;20021;-76
2021/12/04 11:54:50;;;;;;;9.20;6.65;;;;;;;5.42;92.86;99373.63;5027375;28;20032;-77
2021/12/04 11:57:18;;;;;;;10.07;7.13;;;;;;;5.43;92.69;99367.25;5012880;28;20025;-74
2021/12/04 11:59:46;;;;;;;9.82;6.45;;;;;;;5.43;92.70;99367.25;5025004;28;20029;-73
2021/12/04 12:02:23;;;;;;;9.13;6.00;;;;;;;5.44;92.40;99364.44;5022222;28;20057;-76
2021/12/04 12:04:52;;;;;;;7.80;6.53;;;;;;;5.40;92.29;99362.06;5029699;28;20036;-74
2021/12/04 12:07:19;;;;;;;8.52;6.95;;;;;;;5.40;92.71;99356.69;5022886;28;20026;-74
2021/12/04 12:09:47;;;;;;;9.60;6.38;;;;;;;5.39;92.36;99355.81;5027277;28;20465;-73
2021/12/04 12:12:16;;;;;;;8.75;5.90;;;;;;;5.37;92.97;99350.56;5028905;28;20386;-77
2021/12/04 12:14:52;;;;;;;10.88;6.65;;;;;;;5.37;92.55;99355.94;5028827;28;20021;-76
2021/12/04 12:17:39;;;;;;;12.90;6.88;;;;;;;5.35;93.06;99349.78;5022983;28;20059;-73
2021/12/04 12:20:14;;;;;;;11.10;6.32;;;;;;;5.38;92.93;99354.97;5024190;28;20484;-73
2021/12/04 12:23:00;;;;;;;9.88;6.68;;;;;;;5.38;92.67;99352.28;5019203;28;20036;-77
2021/12/04 12:25:50;;;;;;;11.05;6.93;;;;;;;5.37;92.68;99347.84;5026542;28;20037;-77
2021/12/04 12:36:02;;;;;;;9.80;5.97;;;;;;;5.36;92.96;99347.94;5005763;28;20068;-76
2021/12/04 12:37:24;;;;;;;11.45;7.70;;;;;;;5.35;93.23;99348.94;5019731;28;20067;-77
2021/12/04 12:39:57;;;;;;;9.90;6.40;;;;;;;5.33;93.40;99351.75;5020897;28;20503;-74
2021/12/04 12:42:25;;;;;;;12.40;6.45;;;;;;;5.30;93.13;99353.81;5022720;28;20029;-77
2021/12/04 12:44:51;;;;;;;10.90;7.45;;;;;;;5.22;93.50;99351.72;5018687;28;20029;-75
2021/12/04 12:47:17;;;;;;;9.77;6.60;;;;;;;5.17;93.78;99355.69;5022600;28;20029;-78
2021/12/04 12:49:45;;;;;;;12.73;7.65;;;;;;;5.13;93.66;99355.09;5022984;28;20026;-74
2021/12/04 12:52:28;;;;;;;18.35;10.43;;;;;;;5.09;94.06;99361.69;5023157;28;20511;-74
2021/12/04 12:55:05;;;;;;;10.02;7.13;;;;;;;5.08;94.30;99359.94;5015763;28;20029;-78
2021/12/04 12:57:34;;;;;;;13.70;7.80;;;;;;;5.07;94.18;99355.53;5025059;28;20025;-74
2021/12/04 13:13:52;;;;;;;15.35;9.32;;;;;;;4.94;94.92;99338.53;5022726;28;20048;-73
2021/12/04 13:16:20;;;;;;;18.10;9.88;;;;;;;4.94;95.26;99333.13;5019908;28;20393;-78
2021/12/04 13:18:52;;;;;;;16.83;9.90;;;;;;;4.94;95.10;99334.00;5026925;28;20495;-73
2021/12/04 13:21:18;;;;;;;18.27;10.65;;;;;;;4.96;94.95;99339.28;5028791;28;20040;-74
2021/12/04 13:23:49;;;;;;;18.02;10.52;;;;;;;4.96;95.12;99340.16;5021929;28;20030;-78
2021/12/04 13:26:16;;;;;;;20.73;11.10;;;;;;;4.98;95.03;99335.50;5015923;28;20041;-75
2021/12/04 13:28:46;;;;;;;18.10;11.15;;;;;;;4.98;94.97;99334.63;5022466;28;20112;-78
2021/12/04 13:31:11;;;;;;;17.77;10.10;;;;;;;5.00;94.97;99338.09;5016566;28;20049;-78
2021/12/04 13:33:41;;;;;;;17.55;9.93;;;;;;;5.03;95.30;99332.47;5039122;28;20064;-73
2021/12/04 13:36:15;;;;;;;16.85;10.15;;;;;;;5.02;95.14;99328.91;5038872;28;20025;-78
2021/12/04 13:38:41;;;;;;;16.88;9.80;;;;;;;5.06;95.04;99329.53;5025936;28;20041;-72
2021/12/04 13:41:06;;;;;;;17.27;10.25;;;;;;;5.05;95.00;99322.44;5025530;28;20032;-78
2021/12/04 13:43:32;;;;;;;18.23;10.57;;;;;;;5.05;94.71;99326.00;5026074;28;20116;-76
2021/12/04 13:46:04;;;;;;;18.20;10.35;;;;;;;5.04;95.03;99326.13;5021999;28;20075;-77
2021/12/04 13:48:31;;;;;;;14.43;9.45;;;;;;;5.02;94.97;99323.50;5012639;28;20385;-74
2021/12/04 13:50:59;;;;;;;16.65;10.80;;;;;;;5.04;94.88;99326.97;5004141;28;20029;-73
2021/12/04 13:53:30;;;;;;;17.90;9.90;;;;;;;5.04;95.35;99332.38;5019833;28;20048;-77
2021/12/04 13:56:05;;;;;;;17.95;9.77;;;;;;;5.03;94.86;99330.63;5013798;28;20021;-73
2021/12/04 13:58:30;;;;;;;14.25;8.65;;;;;;;5.02;94.92;99323.50;5027252;28;20088;-73
2021/12/04 14:00:59;;;;;;;14.02;8.57;;;;;;;5.05;95.08;99334.09;5017789;28;20036;-73
2021/12/04 14:03:29;;;;;;;13.13;8.07;;;;;;;5.06;94.91;99330.41;5018181;28;20504;-77
2021/12/04 14:05:54;;;;;;;13.75;8.18;;;;;;;5.05;95.24;99323.31;5035706;28;20504;-72
2021/12/04 14:08:20;;;;;;;14.77;9.27;;;;;;;5.05;94.95;99320.59;5017725;28;20021;-73
2021/12/04 14:10:48;;;;;;;13.50;8.70;;;;;;;5.07;95.20;99336.66;5018237;28;20026;-77
2021/12/04 14:13:19;;;;;;;12.10;7.60;;;;;;;5.06;94.99;99327.72;5022833;28;20389;-77
2021/12/04 14:15:46;;;;;;;13.18;8.32;;;;;;;5.06;95.39;99330.41;5023643;28;20076;-73
2021/12/04 14:18:18;;;;;;;14.70;8.48;;;;;;;5.08;95.33;99333.88;5035530;28;20071;-76
2021/12/04 14:20:51;;;;;;;17.80;8.68;;;;;;;5.07;95.14;99332.13;5029599;28;20027;-75
2021/12/04 14:23:16;;;;;;;13.43;8.13;;;;;;;5.08;95.37;99330.28;5019470;28;20484;-78
2021/12/04 14:25:44;;;;;;;14.07;8.65;;;;;;;5.10;95.47;99331.91;5029333;28;20076;-72
2021/12/04 14:28:13;;;;;;;14.23;7.95;;;;;;;5.11;95.58;99338.16;5020880;28;20032;-74
2021/12/04 14:30:38;;;;;;;15.60;8.77;;;;;;;5.07;95.35;99332.13;5027773;28;20059;-77
2021/12/04 14:33:07;;;;;;;15.45;8.43;;;;;;;5.09;95.18;99348.19;5028565;28;20057;-73
2021/12/04 14:35:39;;;;;;;13.50;8.25;;;;;;;5.10;95.24;99345.38;5025404;28;20041;-77
2021/12/04 14:38:10;;;;;;;11.95;7.63;;;;;;;5.11;95.42;99354.31;5021949;28;20049;-79
2021/12/04 14:40:51;;;;;;;12.15;7.07;;;;;;;5.11;95.28;99363.25;5025400;28;20037;-78
2021/12/04 14:43:22;;;;;;;11.77;7.43;;;;;;;5.09;94.99;99367.91;5016711;28;20526;-74